createdAt,value
2023-04-22T00:00:27.346Z,43.85
2023-04-22T00:03:27.618Z,44.06
2023-04-22T00:06:20.799Z,44.10
2023-04-22T00:09:07.309Z,44.13
2023-04-22T00:12:19.186Z,44.58
2023-04-22T00:14:47.903Z,44.14
2023-04-22T00:17:16.522Z,42.56
2023-04-22T00:19:47.726Z,42.03
2023-04-22T00:22:20.047Z,41.53
2023-04-22T00:24:51.058Z,41.24
2023-04-22T00:27:19.497Z,41.68
2023-04-22T00:29:50.871Z,41.65
2023-04-22T00:32:20.411Z,41.18
2023-04-22T00:35:12.434Z,41.19
2023-04-22T00:38:20.035Z,40.16
2023-04-22T00:47:31.983Z,41.13
2023-04-22T00:50:27.999Z,40.99
2023-04-22T00:53:04.881Z,42.19
2023-04-22T00:55:43.248Z,41.04
2023-04-22T00:58:29.871Z,41.21
2023-04-22T01:00:59.170Z,41.46
2023-04-22T01:03:31.536Z,40.96
2023-04-22T01:06:00.404Z,40.62
2023-04-22T01:08:33.194Z,40.41
2023-04-22T01:11:02.454Z,41.17
2023-04-22T01:13:31.677Z,40.97
2023-04-22T01:16:04.442Z,41.32
2023-04-22T01:18:33.583Z,41.56
2023-04-22T01:21:05.862Z,41.93
2023-04-22T01:23:37.466Z,41.66
2023-04-22T01:26:07.057Z,41.37
2023-04-22T01:28:35.925Z,40.97
2023-04-22T01:31:04.753Z,41.72
2023-04-22T01:33:37.000Z,41.91
2023-04-22T01:36:05.778Z,41.41
2023-04-22T01:38:34.809Z,41.55
2023-04-22T01:41:04.094Z,41.12
2023-04-22T01:43:41.981Z,41.49
2023-04-22T01:46:26.141Z,40.96
2023-04-22T01:49:03.753Z,41.08
2023-04-22T01:51:33.321Z,40.13
2023-04-22T01:54:04.958Z,40.20
2023-04-22T01:56:34.049Z,40.22
2023-04-22T01:59:02.536Z,40.25
2023-04-22T02:01:31.189Z,40.27
2023-04-22T02:03:59.584Z,40.75
2023-04-22T02:06:28.310Z,40.30
2023-04-22T02:08:56.570Z,40.55
2023-04-22T02:11:24.926Z,40.79
2023-04-22T02:13:53.198Z,41.34
2023-04-22T02:16:21.874Z,41.53
2023-04-22T02:18:50.539Z,41.61
2023-04-22T02:21:18.791Z,41.97
2023-04-22T02:23:47.267Z,42.25
2023-04-22T02:26:15.528Z,42.71
2023-04-22T02:28:43.771Z,42.67
2023-04-22T02:31:12.092Z,43.48
2023-04-22T02:33:40.611Z,43.52
2023-04-22T02:36:09.112Z,43.60
2023-04-22T02:38:38.326Z,44.15
2023-04-22T02:41:06.661Z,43.71
2023-04-22T02:43:35.060Z,44.37
2023-04-22T02:46:04.354Z,44.67
2023-04-22T02:48:32.901Z,44.39
2023-04-22T02:51:01.272Z,45.64
2023-04-22T02:53:29.579Z,46.12
2023-04-22T02:55:59.236Z,47.29
2023-04-22T02:58:28.065Z,47.82
2023-04-22T03:00:57.942Z,48.16
2023-04-22T03:03:26.830Z,48.06
2023-04-22T03:05:55.361Z,48.61
2023-04-22T03:08:23.778Z,48.63
2023-04-22T03:10:52.659Z,49.04
2023-04-22T03:13:20.867Z,48.22
2023-04-22T03:15:49.160Z,49.24
2023-04-22T03:18:17.488Z,48.94
2023-04-22T03:20:45.775Z,48.88
2023-04-22T03:23:14.057Z,49.77
2023-04-22T03:25:42.532Z,50.11
2023-04-22T03:28:11.448Z,50.13
2023-04-22T03:30:39.717Z,50.15
2023-04-22T03:33:08.100Z,50.18
2023-04-22T03:35:36.449Z,50.43
2023-04-22T03:38:04.729Z,48.88
2023-04-22T03:40:33.022Z,49.83
2023-04-22T03:43:01.346Z,49.42
2023-04-22T03:45:30.043Z,50.04
2023-04-22T03:47:58.447Z,49.54
2023-04-22T03:50:26.707Z,50.00
2023-04-22T03:52:55.004Z,49.97
2023-04-22T03:55:23.578Z,51.97
2023-04-22T03:57:51.933Z,50.78
2023-04-22T04:00:20.227Z,51.71
2023-04-22T04:02:48.540Z,52.03
2023-04-22T04:05:17.168Z,52.16
2023-04-22T04:07:46.033Z,51.90
2023-04-22T04:10:14.459Z,51.03
2023-04-22T04:12:43.215Z,50.55
2023-04-22T04:15:12.946Z,50.74
2023-04-22T04:17:41.314Z,51.75
2023-04-22T04:20:09.926Z,52.60
2023-04-22T04:22:39.704Z,53.40
2023-04-22T04:25:09.125Z,53.92
2023-04-22T04:27:40.091Z,54.62
2023-04-22T04:30:10.467Z,54.35
2023-04-22T04:32:38.857Z,53.22
2023-04-22T04:35:07.830Z,53.09
2023-04-22T04:37:37.942Z,53.15
2023-04-22T04:40:08.592Z,52.90
2023-04-22T04:42:38.274Z,51.98
2023-04-22T04:45:07.072Z,51.88
2023-04-22T04:47:35.375Z,54.71
2023-04-22T04:50:06.055Z,56.24
2023-04-22T04:52:34.316Z,57.30
2023-04-22T04:55:02.515Z,57.78
2023-04-22T04:57:30.753Z,57.84
2023-04-22T04:59:59.059Z,58.58
2023-04-22T05:02:27.431Z,58.56
2023-04-22T05:04:55.905Z,58.55
2023-04-22T05:07:24.242Z,59.22
2023-04-22T05:09:52.486Z,59.94
2023-04-22T05:12:20.853Z,59.74
2023-04-22T05:14:49.107Z,59.32
2023-04-22T05:17:17.533Z,58.57
2023-04-22T05:19:45.778Z,58.48
2023-04-22T05:22:14.142Z,58.18
2023-04-22T05:24:42.369Z,58.57
2023-04-22T05:27:11.172Z,58.79
2023-04-22T05:29:39.659Z,59.02
2023-04-22T05:32:11.625Z,58.60
2023-04-22T05:34:40.029Z,60.36
2023-04-22T05:37:09.175Z,61.48
2023-04-22T05:39:37.677Z,61.47
2023-04-22T05:42:06.100Z,61.30
2023-04-22T05:44:34.353Z,61.00
2023-04-22T05:47:02.622Z,61.52
2023-04-22T05:49:31.391Z,61.86
2023-04-22T05:51:59.881Z,61.65
2023-04-22T05:54:28.811Z,61.47
2023-04-22T05:56:57.771Z,61.16
2023-04-22T05:59:26.144Z,60.67
2023-04-22T06:01:54.382Z,60.39
2023-04-22T06:04:22.992Z,61.56
2023-04-22T06:06:54.769Z,62.77
2023-04-22T06:09:23.526Z,63.49
2023-04-22T06:11:51.793Z,63.50
2023-04-22T06:14:20.106Z,63.84
2023-04-22T06:16:48.599Z,64.37
2023-04-22T06:19:17.085Z,64.61
2023-04-22T06:21:45.323Z,65.00
2023-04-22T06:24:14.144Z,64.71
2023-04-22T06:26:42.426Z,65.27
2023-04-22T06:29:10.912Z,66.33
2023-04-22T06:31:39.380Z,66.47
2023-04-22T06:34:07.730Z,67.02
2023-04-22T06:36:38.397Z,67.01
2023-04-22T06:39:07.123Z,66.78
2023-04-22T06:41:35.718Z,68.07
2023-04-22T06:44:04.030Z,67.82
2023-04-22T06:46:32.312Z,67.61
2023-04-22T06:49:00.650Z,67.68
2023-04-22T06:51:28.930Z,68.12
2023-04-22T06:53:59.093Z,68.89
2023-04-22T06:56:27.366Z,69.85
2023-04-22T06:58:56.587Z,70.23
2023-04-22T07:01:24.932Z,70.23
2023-04-22T07:03:53.313Z,70.31
2023-04-22T07:06:21.824Z,70.64
2023-04-22T07:08:50.656Z,70.72
2023-04-22T07:11:18.897Z,70.88
2023-04-22T07:13:47.394Z,70.75
2023-04-22T07:16:15.700Z,70.64
2023-04-22T07:18:44.027Z,70.54
2023-04-22T07:21:12.255Z,70.73
2023-04-22T07:23:41.019Z,70.85
2023-04-22T07:26:09.302Z,70.96
2023-04-22T07:28:37.657Z,70.67
2023-04-22T07:31:06.098Z,70.88
2023-04-22T07:33:34.328Z,71.00
2023-04-22T07:36:02.608Z,70.89
2023-04-22T07:38:30.850Z,70.58
2023-04-22T07:40:59.195Z,70.98
2023-04-22T07:43:27.467Z,71.37
2023-04-22T07:45:55.787Z,71.63
2023-04-22T07:48:24.410Z,72.39
2023-04-22T07:50:52.693Z,72.15
2023-04-22T07:53:21.599Z,72.49
2023-04-22T07:55:50.629Z,72.35
2023-04-22T07:58:19.457Z,72.47
2023-04-22T08:00:47.774Z,72.11
2023-04-22T08:03:16.492Z,72.38
2023-04-22T08:05:44.911Z,72.73
2023-04-22T08:08:13.152Z,72.36
2023-04-22T08:10:41.533Z,72.47
2023-04-22T08:13:09.901Z,72.62
2023-04-22T08:15:38.155Z,72.39
2023-04-22T08:18:06.507Z,72.13
2023-04-22T08:20:35.460Z,72.00
2023-04-22T08:23:03.801Z,72.35
2023-04-22T08:25:32.420Z,72.46
2023-04-22T08:28:00.737Z,72.67
2023-04-22T08:30:29.005Z,72.68
2023-04-22T08:32:57.312Z,72.77
2023-04-22T08:35:25.664Z,73.06
2023-04-22T08:37:54.075Z,72.84
2023-04-22T08:40:22.524Z,72.43
2023-04-22T08:42:53.046Z,72.36
2023-04-22T08:45:22.194Z,72.45
2023-04-22T08:47:51.251Z,72.80
2023-04-22T08:50:23.342Z,72.84
2023-04-22T08:52:52.049Z,73.37
2023-04-22T08:55:21.286Z,73.68
2023-04-22T08:57:51.183Z,73.72
2023-04-22T09:00:20.389Z,73.45
2023-04-22T09:02:49.227Z,73.50
2023-04-22T09:05:17.738Z,74.06
2023-04-22T09:07:46.588Z,74.14
2023-04-22T09:10:15.308Z,74.02
2023-04-22T09:12:44.225Z,73.95
2023-04-22T09:15:13.528Z,74.15
2023-04-22T09:17:44.180Z,74.18
2023-04-22T09:20:13.863Z,74.25
2023-04-22T09:22:47.916Z,74.12
2023-04-22T09:25:27.102Z,73.92
2023-04-22T09:28:00.338Z,74.51
2023-04-22T09:30:33.989Z,74.41
2023-04-22T09:33:04.956Z,74.25
2023-04-22T09:35:41.744Z,73.80
2023-04-22T09:38:14.060Z,74.32
2023-04-22T09:40:45.949Z,73.58
2023-04-22T09:43:18.992Z,73.60
2023-04-22T09:45:47.591Z,73.58
2023-04-22T09:48:21.828Z,73.46
2023-04-22T09:50:52.135Z,73.77
2023-04-22T09:53:22.355Z,73.60
2023-04-22T09:55:56.829Z,73.69
2023-04-22T09:58:26.606Z,74.29
2023-04-22T10:01:00.189Z,74.14
2023-04-22T10:03:28.562Z,74.34
2023-04-22T10:05:56.887Z,74.47
2023-04-22T10:08:25.426Z,74.34
2023-04-22T10:10:55.029Z,74.76
2023-04-22T10:13:23.370Z,74.79
2023-04-22T10:15:54.725Z,74.96
2023-04-22T10:18:29.435Z,73.73
2023-04-22T10:21:00.535Z,74.66
2023-04-22T10:23:34.836Z,74.50
2023-04-22T10:26:03.286Z,74.74
2023-04-22T10:28:31.682Z,75.01
2023-04-22T10:30:59.969Z,74.96
2023-04-22T10:33:29.546Z,74.96
2023-04-22T10:36:11.379Z,74.47
2023-04-22T10:38:41.640Z,75.31
2023-04-22T10:41:23.668Z,74.98
2023-04-22T10:43:59.427Z,75.02
2023-04-22T10:46:40.676Z,75.23
2023-04-22T10:49:14.127Z,75.74
2023-04-22T10:51:51.294Z,75.44
2023-04-22T10:54:31.942Z,75.91
2023-04-22T10:57:20.601Z,75.58
2023-04-22T10:59:56.378Z,76.12
2023-04-22T11:02:25.603Z,75.78
2023-04-22T11:05:33.848Z,75.28
2023-04-22T11:08:14.076Z,75.91
2023-04-22T11:10:45.261Z,76.21
2023-04-22T11:13:18.217Z,76.19
2023-04-22T11:15:52.116Z,76.43
2023-04-22T11:18:22.894Z,76.67
2023-04-22T11:20:52.453Z,76.68
2023-04-22T11:23:27.411Z,76.53
2023-04-22T11:26:03.742Z,76.64
2023-04-22T11:28:32.706Z,76.99
2023-04-22T11:31:08.770Z,76.97
2023-04-22T11:33:39.309Z,77.21
2023-04-22T11:36:12.713Z,76.32
2023-04-22T11:38:40.953Z,76.81
2023-04-22T11:41:09.328Z,77.37
2023-04-22T11:43:48.564Z,76.58
2023-04-22T11:46:16.878Z,76.78
2023-04-22T11:48:45.169Z,77.19
2023-04-22T11:51:13.953Z,77.11
2023-04-22T11:53:51.604Z,76.23
2023-04-22T11:56:21.887Z,76.75
2023-04-22T11:58:50.136Z,77.16
2023-04-22T12:01:19.459Z,77.17
2023-04-22T12:03:47.865Z,77.22
2023-04-22T12:06:17.781Z,77.02
2023-04-22T12:08:48.651Z,77.12
2023-04-22T12:11:16.922Z,76.93
2023-04-22T12:13:51.552Z,77.16
2023-04-22T12:16:21.518Z,77.19
2023-04-22T12:18:51.673Z,77.43
2023-04-22T12:21:26.114Z,77.28
2023-04-22T12:23:56.569Z,77.44
2023-04-22T12:26:27.890Z,77.85
2023-04-22T12:28:58.749Z,78.18
2023-04-22T12:31:28.162Z,78.51
2023-04-22T12:33:57.037Z,78.47
2023-04-22T12:36:26.973Z,78.74
2023-04-22T12:38:55.329Z,78.65
2023-04-22T12:41:24.511Z,79.07
2023-04-22T12:43:53.380Z,79.20
2023-04-22T12:46:21.880Z,79.12
2023-04-22T12:48:50.198Z,78.87
2023-04-22T12:51:18.441Z,78.20
2023-04-22T12:53:46.666Z,77.65
2023-04-22T12:56:15.013Z,77.50
2023-04-22T12:58:43.638Z,77.54
2023-04-22T13:01:11.904Z,77.68
2023-04-22T13:03:40.275Z,77.93
2023-04-22T13:06:08.730Z,78.24
2023-04-22T13:08:37.081Z,78.60
2023-04-22T13:11:05.437Z,79.20
2023-04-22T13:13:33.693Z,79.14
2023-04-22T13:16:03.134Z,79.13
2023-04-22T13:18:31.477Z,79.44
2023-04-22T13:21:01.099Z,79.77
2023-04-22T13:23:29.478Z,80.05
2023-04-22T13:25:57.970Z,80.44
2023-04-22T13:28:26.861Z,80.66
2023-04-22T13:30:56.521Z,80.72
2023-04-22T13:33:24.950Z,80.78
2023-04-22T13:35:53.229Z,80.98
2023-04-22T13:38:22.145Z,81.08
2023-04-22T13:40:50.719Z,81.08
2023-04-22T13:43:19.102Z,80.91
2023-04-22T13:45:49.150Z,80.78
2023-04-22T13:48:17.948Z,80.60
2023-04-22T13:50:46.449Z,80.27
2023-04-22T13:53:15.022Z,80.21
2023-04-22T13:55:44.272Z,80.10
2023-04-22T13:58:12.552Z,80.16
2023-04-22T14:00:40.992Z,80.34
2023-04-22T14:03:09.513Z,81.10
2023-04-22T14:05:37.892Z,81.63
2023-04-22T14:08:06.228Z,82.13
2023-04-22T14:10:35.003Z,82.17
2023-04-22T14:13:03.260Z,82.37
2023-04-22T14:15:31.841Z,82.28
2023-04-22T14:18:00.272Z,82.23
2023-04-22T14:20:28.670Z,81.62
2023-04-22T14:22:57.026Z,81.89
2023-04-22T14:25:25.557Z,82.00
2023-04-22T14:27:53.957Z,82.13
2023-04-22T14:30:22.722Z,82.27
2023-04-22T14:32:51.630Z,82.40
2023-04-22T14:35:20.234Z,82.35
2023-04-22T14:37:49.095Z,82.66
2023-04-22T14:40:18.287Z,82.32
2023-04-22T14:42:46.679Z,82.67
2023-04-22T14:45:15.893Z,82.66
2023-04-22T14:47:44.220Z,83.13
2023-04-22T14:50:12.633Z,83.52
2023-04-22T14:52:41.103Z,83.86
2023-04-22T14:55:19.897Z,83.62
2023-04-22T14:57:51.724Z,83.13
2023-04-22T15:00:20.101Z,82.73
2023-04-22T15:02:48.708Z,82.63
2023-04-22T15:05:17.199Z,82.84
2023-04-22T15:07:45.435Z,82.96
2023-04-22T15:10:15.191Z,82.63
2023-04-22T15:12:43.931Z,82.16
2023-04-22T15:15:16.830Z,81.17
2023-04-22T15:17:46.726Z,80.12
2023-04-22T15:20:15.667Z,79.89
2023-04-22T15:22:45.513Z,80.96
2023-04-22T15:25:14.350Z,81.05
2023-04-22T15:27:43.579Z,80.92
2023-04-22T15:30:12.676Z,79.91
2023-04-22T15:32:41.058Z,80.02
2023-04-22T15:35:09.761Z,80.17
2023-04-22T15:37:38.180Z,79.74
2023-04-22T15:40:08.598Z,79.64
2023-04-22T15:42:37.083Z,79.88
2023-04-22T15:45:05.689Z,79.84
2023-04-22T15:47:34.719Z,80.30
2023-04-22T15:50:07.225Z,79.22
2023-04-22T15:52:36.584Z,78.76
2023-04-22T15:55:05.885Z,79.04
2023-04-22T15:57:35.647Z,77.32
2023-04-22T16:00:13.120Z,76.33
2023-04-22T16:02:44.282Z,76.93
2023-04-22T16:05:15.153Z,75.82
2023-04-22T16:07:43.450Z,76.00
2023-04-22T16:10:12.131Z,75.77
2023-04-22T16:12:40.397Z,74.24
2023-04-22T16:15:09.511Z,75.07
2023-04-22T16:17:39.070Z,75.69
2023-04-22T16:20:08.237Z,74.37
2023-04-22T16:22:37.204Z,74.32
2023-04-22T16:25:05.832Z,73.99
2023-04-22T16:27:34.402Z,74.25
2023-04-22T16:30:02.779Z,71.59
2023-04-22T16:32:31.270Z,72.96
2023-04-22T16:34:59.737Z,73.23
2023-04-22T16:37:28.333Z,72.91
2023-04-22T16:39:57.513Z,72.71
2023-04-22T16:42:25.764Z,70.41
2023-04-22T16:44:54.564Z,69.59
2023-04-22T16:47:23.468Z,70.72
2023-04-22T16:49:51.840Z,73.08
2023-04-22T16:52:20.414Z,71.42
2023-04-22T16:54:48.790Z,70.00
2023-04-22T16:57:17.198Z,69.40
2023-04-22T16:59:45.546Z,68.74
2023-04-22T17:02:13.985Z,69.21
2023-04-22T17:04:42.502Z,70.26
2023-04-22T17:07:11.697Z,69.61
2023-04-22T17:09:40.897Z,67.42
2023-04-22T17:12:09.444Z,64.96
2023-04-22T17:14:37.668Z,64.62
2023-04-22T17:17:05.968Z,63.75
2023-04-22T17:19:37.497Z,63.06
2023-04-22T17:22:06.116Z,62.92
2023-04-22T17:24:34.919Z,62.15
2023-04-22T17:27:03.815Z,62.23
2023-04-22T17:29:32.129Z,60.80
2023-04-22T17:32:00.550Z,60.32
2023-04-22T17:34:28.793Z,60.52
2023-04-22T17:36:56.976Z,59.32
2023-04-22T17:39:25.378Z,59.74
2023-04-22T17:41:53.689Z,59.05
2023-04-22T17:44:21.997Z,58.21
2023-04-22T17:46:50.300Z,57.75
2023-04-22T17:49:18.559Z,57.08
2023-04-22T17:51:46.951Z,56.28
2023-04-22T17:54:15.274Z,57.48
2023-04-22T17:56:43.866Z,57.18
2023-04-22T17:59:15.239Z,56.39
2023-04-22T18:01:43.851Z,54.30
2023-04-22T18:04:12.449Z,55.77
2023-04-22T18:06:41.014Z,55.00
2023-04-22T18:09:09.343Z,56.40
2023-04-22T18:11:37.839Z,55.77
2023-04-22T18:14:06.135Z,55.47
2023-04-22T18:16:34.566Z,56.59
2023-04-22T18:19:04.955Z,56.55
2023-04-22T18:21:33.962Z,57.12
2023-04-22T18:24:03.506Z,56.20
2023-04-22T18:26:31.782Z,54.56
2023-04-22T18:29:00.010Z,54.14
2023-04-22T18:31:28.465Z,52.76
2023-04-22T18:33:56.832Z,51.82
2023-04-22T18:36:25.069Z,50.79
2023-04-22T18:38:53.436Z,50.18
2023-04-22T18:41:21.841Z,50.56
2023-04-22T18:43:50.163Z,50.53
2023-04-22T18:46:18.486Z,50.27
2023-04-22T18:48:46.912Z,48.67
2023-04-22T18:51:15.154Z,48.67
2023-04-22T18:53:44.711Z,47.81
2023-04-22T18:56:13.164Z,48.24
2023-04-22T18:58:41.462Z,48.14
2023-04-22T19:01:09.911Z,48.12
2023-04-22T19:03:40.189Z,47.75
2023-04-22T19:06:08.908Z,46.91
2023-04-22T19:08:37.182Z,47.85
2023-04-22T19:11:06.635Z,48.11
2023-04-22T19:13:35.013Z,48.00
2023-04-22T19:16:03.307Z,47.35
2023-04-22T19:18:31.635Z,47.96
2023-04-22T19:21:00.196Z,47.58
2023-04-22T19:23:28.615Z,47.30
2023-04-22T19:25:56.849Z,47.08
2023-04-22T19:28:25.091Z,48.18
2023-04-22T19:30:54.140Z,47.80
2023-04-22T19:33:22.654Z,49.89
2023-04-22T19:35:51.428Z,48.67
2023-04-22T19:38:22.133Z,48.48
2023-04-22T19:40:50.416Z,47.99
2023-04-22T19:43:19.875Z,46.54
2023-04-22T19:45:48.144Z,47.15
2023-04-22T19:48:16.961Z,46.89
2023-04-22T19:50:45.680Z,46.81
2023-04-22T19:53:14.938Z,47.53
2023-04-22T19:55:44.829Z,46.85
2023-04-22T19:58:13.297Z,46.51
2023-04-22T20:00:43.390Z,47.73
2023-04-22T20:03:13.859Z,46.37
2023-04-22T20:05:44.312Z,46.02
2023-04-22T20:08:14.801Z,45.48
2023-04-22T20:10:44.256Z,48.38
2023-04-22T20:13:12.531Z,49.15
2023-04-22T20:15:41.025Z,48.57
2023-04-22T20:18:09.682Z,47.44
2023-04-22T20:20:38.168Z,46.41
2023-04-22T20:23:11.194Z,47.12
2023-04-22T20:25:42.862Z,47.60
2023-04-22T20:28:11.872Z,48.04
2023-04-22T20:30:40.534Z,48.78
2023-04-22T20:33:11.538Z,49.57
2023-04-22T20:35:41.254Z,49.31
2023-04-22T20:38:14.157Z,50.57
2023-04-22T20:40:43.818Z,50.79
2023-04-22T20:43:12.136Z,50.57
2023-04-22T20:45:40.419Z,50.56
2023-04-22T20:48:09.012Z,50.87
2023-04-22T20:50:37.348Z,51.24
2023-04-22T20:53:06.046Z,51.47
2023-04-22T20:55:36.778Z,52.23
2023-04-22T20:58:05.507Z,53.03
2023-04-22T21:00:33.822Z,52.93
2023-04-22T21:03:04.179Z,52.04
2023-04-22T21:05:41.985Z,52.99
2023-04-22T21:08:23.977Z,51.33
2023-04-22T21:10:54.634Z,51.69
2023-04-22T21:13:24.199Z,52.13
2023-04-22T21:16:04.651Z,51.84
2023-04-22T21:18:34.810Z,52.01
2023-04-22T21:21:06.018Z,52.55
2023-04-22T21:23:35.159Z,52.14
2023-04-22T21:26:04.458Z,52.46
2023-04-22T21:28:33.228Z,52.38
2023-04-22T21:31:02.037Z,51.73
2023-04-22T21:33:30.317Z,52.18
2023-04-22T21:35:59.031Z,52.18
2023-04-22T21:38:27.284Z,52.39
2023-04-22T21:40:55.610Z,52.12
2023-04-22T21:43:24.270Z,52.34
2023-04-22T21:45:52.528Z,51.59
2023-04-22T21:48:20.737Z,51.13
2023-04-22T21:50:49.556Z,51.60
2023-04-22T21:53:20.291Z,51.58
2023-04-22T21:55:48.769Z,50.30
2023-04-22T21:58:17.077Z,50.64
2023-04-22T22:00:45.938Z,51.15
2023-04-22T22:03:14.510Z,49.17
2023-04-22T22:05:42.925Z,50.98
2023-04-22T22:08:11.171Z,49.08
2023-04-22T22:10:39.958Z,47.59
2023-04-22T22:13:09.256Z,47.79
2023-04-22T22:15:37.744Z,47.18
2023-04-22T22:18:07.686Z,46.36
2023-04-22T22:20:37.814Z,45.16
2023-04-22T22:23:06.186Z,45.22
2023-04-22T22:25:34.466Z,44.61
2023-04-22T22:28:02.892Z,44.55
2023-04-22T22:30:31.562Z,43.92
2023-04-22T22:32:59.944Z,43.53
2023-04-22T22:35:28.395Z,43.37
2023-04-22T22:37:56.731Z,42.54
2023-04-22T22:40:25.257Z,42.81
2023-04-22T22:42:54.101Z,42.53
2023-04-22T22:45:22.445Z,42.03
2023-04-22T22:47:50.996Z,42.29
2023-04-22T22:50:38.043Z,41.54
2023-04-22T22:53:09.004Z,41.94
2023-04-22T22:55:37.507Z,42.30
2023-04-22T22:58:05.965Z,42.40
2023-04-22T23:00:42.352Z,41.40
2023-04-22T23:03:11.180Z,41.21
2023-04-22T23:05:43.072Z,40.85
2023-04-22T23:08:11.750Z,40.59
2023-04-22T23:10:40.350Z,40.56
2023-04-22T23:13:09.199Z,40.91
2023-04-22T23:15:37.586Z,41.10
2023-04-22T23:18:07.421Z,41.00
2023-04-22T23:24:17.010Z,41.48
2023-04-22T23:26:46.005Z,41.79
2023-04-22T23:29:16.968Z,41.15
2023-04-22T23:31:46.803Z,41.25
2023-04-22T23:34:18.163Z,41.18
2023-04-22T23:36:46.867Z,41.30
2023-04-22T23:39:15.233Z,41.92
2023-04-22T23:41:53.955Z,41.77
2023-04-22T23:45:04.624Z,41.86
2023-04-22T23:47:33.398Z,41.55
2023-04-22T23:50:01.980Z,41.51
2023-04-22T23:52:48.259Z,41.45
2023-04-22T23:55:16.941Z,41.42
2023-04-22T23:57:45.497Z,41.69
